Time;durP1;ratioP1;P1;durP2;ratioP2;P2;SDS_P1;SDS_P2;PMS_P1;PMS_P2;Temp;Humidity;BMP_temperature;BMP_pressure;BME280_temperature;BME280_humidity;BME280_pressure;Samples;Min_cycle;Max_cycle;Signal;HPM_P1;HPM_P2
2022/08/13 00:00:49;;;;;;;13.93;2.70;;;;;;;21.22;38.56;101366.41;5031409;28;20394;-70
2022/08/13 00:03:18;;;;;;;9.23;3.10;;;;;;;21.10;38.22;101355.28;5031140;28;20445;-70
2022/08/13 00:06:08;;;;;;;10.70;2.97;;;;;;;21.05;38.66;101359.72;5031015;28;20046;-71
2022/08/13 00:08:48;;;;;;;9.00;3.20;;;;;;;21.03;38.90;101359.09;5031178;28;20042;-71
2022/08/13 00:12:56;;;;;;;6.60;3.03;;;;;;;20.84;39.06;101367.09;5031062;28;20049;-69
2022/08/13 00:14:04;;;;;;;8.30;2.60;;;;;;;20.91;38.95;101364.38;5030074;28;20049;-69
2022/08/13 00:16:32;;;;;;;8.23;3.03;;;;;;;20.90;39.21;101368.13;5029841;28;20121;-71
2022/08/13 00:19:00;;;;;;;8.68;2.92;;;;;;;20.86;38.96;101359.53;5030237;28;20409;-69
2022/08/13 00:21:28;;;;;;;8.75;3.10;;;;;;;20.67;39.37;101363.16;5031459;28;20397;-70
2022/08/13 00:24:15;;;;;;;7.90;2.75;;;;;;;20.82;38.82;101358.28;5029877;28;20055;-70
2022/08/13 00:26:59;;;;;;;9.43;3.20;;;;;;;20.76;39.42;101348.22;5030815;28;20141;-70
2022/08/13 00:29:29;;;;;;;12.55;3.13;;;;;;;20.79;39.42;101347.81;5030279;28;20050;-70
2022/08/13 00:31:56;;;;;;;11.85;2.47;;;;;;;20.76;39.22;101342.78;5029494;28;20052;-70
2022/08/13 00:34:24;;;;;;;13.20;3.50;;;;;;;20.78;39.33;101350.75;5030211;28;20049;-69
2022/08/13 00:36:52;;;;;;;11.35;2.88;;;;;;;20.76;39.54;101337.31;5030799;28;20057;-69
2022/08/13 00:39:32;;;;;;;10.27;2.75;;;;;;;20.77;39.33;101340.91;5030611;28;20102;-70
2022/08/13 00:42:23;;;;;;;5.07;2.80;;;;;;;20.85;39.42;101343.41;5030900;28;20045;-69
2022/08/13 00:44:51;;;;;;;9.57;2.95;;;;;;;20.83;39.23;101340.03;5031090;28;20215;-69
2022/08/13 00:50:05;;;;;;;10.30;3.15;;;;;;;20.88;39.29;101345.69;5029951;28;20469;-71
2022/08/13 00:52:40;;;;;;;15.27;3.13;;;;;;;20.91;39.22;101346.13;5030288;28;20128;-70
2022/08/13 00:55:16;;;;;;;12.15;2.90;;;;;;;20.93;39.24;101337.69;5031068;28;20120;-70
2022/08/13 00:57:50;;;;;;;4.45;2.90;;;;;;;20.98;39.28;101337.91;5030913;28;20049;-70
2022/08/13 01:00:22;;;;;;;8.27;3.05;;;;;;;21.01;39.15;101337.50;5030775;28;20049;-70
2022/08/13 01:02:51;;;;;;;9.80;3.20;;;;;;;20.97;39.54;101329.94;5031003;28;20120;-70
2022/08/13 01:09:12;;;;;;;7.68;2.85;;;;;;;20.97;39.56;101327.19;5023963;28;20492;-70
2022/08/13 01:12:00;;;;;;;6.50;3.08;;;;;;;20.93;39.50;101315.88;5030678;28;20050;-70
2022/08/13 01:14:32;;;;;;;10.35;2.92;;;;;;;20.86;39.69;101323.25;5024772;28;20049;-71
2022/08/13 01:17:02;;;;;;;13.98;2.92;;;;;;;20.88;39.81;101326.63;5027220;28;20190;-69
2022/08/13 01:19:34;;;;;;;8.73;3.10;;;;;;;20.82;40.05;101316.56;5025124;28;20045;-70
2022/08/13 01:22:20;;;;;;;7.55;3.22;;;;;;;20.79;39.94;101315.09;5030403;28;20060;-69
2022/08/13 01:25:07;;;;;;;6.35;2.80;;;;;;;20.78;40.13;101320.75;5029959;28;20049;-70
2022/08/13 01:27:36;;;;;;;7.25;2.65;;;;;;;20.68;40.22;101316.56;5029108;28;20405;-70
2022/08/13 01:30:05;;;;;;;12.10;3.35;;;;;;;20.57;40.38;101314.50;5030260;28;20049;-69
2022/08/13 01:32:37;;;;;;;6.80;2.97;;;;;;;20.57;40.40;101319.13;5029050;28;20045;-70
2022/08/13 01:35:23;;;;;;;9.15;3.08;;;;;;;20.58;40.58;101313.44;5032782;28;20099;-70
2022/08/13 01:37:53;;;;;;;10.15;3.25;;;;;;;20.57;40.53;101314.50;5033812;28;20512;-70
2022/08/13 01:40:30;;;;;;;6.05;2.53;;;;;;;20.50;40.64;101318.31;5034380;28;20045;-70
2022/08/13 01:42:58;;;;;;;10.10;3.17;;;;;;;20.50;40.84;101315.56;5034749;28;20095;-69
2022/08/13 01:45:30;;;;;;;8.43;3.33;;;;;;;20.44;40.97;101315.34;5034225;28;20188;-71
2022/08/13 01:51:03;;;;;;;11.05;2.92;;;;;;;20.53;40.83;101317.88;5011746;28;20112;-71
2022/08/13 01:53:52;;;;;;;14.00;3.17;;;;;;;20.52;40.92;101308.84;5012642;28;20144;-71
2022/08/13 01:56:21;;;;;;;10.68;3.35;;;;;;;20.58;41.00;101305.28;5002145;28;20136;-71
2022/08/13 01:58:57;;;;;;;8.27;3.22;;;;;;;20.57;40.91;101305.50;5011635;28;20558;-71
2022/08/13 02:01:35;;;;;;;10.52;3.53;;;;;;;20.58;41.13;101304.44;5010521;28;20061;-71
2022/08/13 02:04:13;;;;;;;7.30;3.20;;;;;;;20.58;41.06;101304.44;5010785;28;20058;-71
2022/08/13 02:06:51;;;;;;;9.70;2.85;;;;;;;20.55;41.21;101305.69;5011372;28;20509;-70
2022/08/13 02:09:21;;;;;;;8.77;3.08;;;;;;;20.55;41.18;101311.16;5009887;28;20581;-71
2022/08/13 02:12:10;;;;;;;8.73;3.42;;;;;;;20.56;41.24;101315.56;5009921;28;20046;-71
2022/08/13 02:14:42;;;;;;;12.45;2.90;;;;;;;20.55;41.24;101315.75;5010935;28;20123;-71
2022/08/13 02:17:27;;;;;;;7.13;3.47;;;;;;;20.54;40.98;101317.66;5010697;28;20060;-71
2022/08/13 02:20:17;;;;;;;11.30;3.13;;;;;;;20.46;41.48;101314.34;5006893;28;20126;-71
2022/08/13 02:22:47;;;;;;;5.88;3.03;;;;;;;20.47;41.46;101316.84;5029965;28;20042;-71
2022/08/13 02:25:17;;;;;;;5.25;3.00;;;;;;;20.44;41.26;101319.97;5033293;28;20056;-71
2022/08/13 02:27:44;;;;;;;7.47;3.13;;;;;;;20.37;41.43;101319.94;5032620;28;20041;-71
2022/08/13 02:30:26;;;;;;;12.38;3.83;;;;;;;20.31;41.75;101319.94;5033470;28;20505;-71
2022/08/13 02:32:53;;;;;;;13.50;3.10;;;;;;;20.35;41.82;101313.88;5033508;28;20060;-71
2022/08/13 02:35:23;;;;;;;11.10;3.63;;;;;;;20.28;41.89;101315.78;5032900;28;21083;-71
2022/08/13 02:37:54;;;;;;;12.38;3.22;;;;;;;20.22;42.03;101310.34;5032635;28;20397;-71
2022/08/13 02:43:08;;;;;;;8.35;2.97;;;;;;;20.14;42.08;101309.50;5032628;28;20042;-71
2022/08/13 02:45:36;;;;;;;14.45;2.90;;;;;;;20.10;42.29;101304.66;5031470;28;20556;-71
2022/08/13 02:48:06;;;;;;;15.55;3.08;;;;;;;20.14;42.24;101303.19;5032213;28;20056;-70
2022/08/13 02:50:41;;;;;;;13.95;3.70;;;;;;;20.10;42.42;101302.75;5032543;28;20045;-70
2022/08/13 02:53:15;;;;;;;10.95;3.35;;;;;;;20.12;42.34;101305.28;5032797;28;20060;-70
2022/08/13 02:55:55;;;;;;;9.77;2.97;;;;;;;20.12;42.41;101294.41;5025927;28;20079;-71
2022/08/13 02:58:22;;;;;;;9.40;3.40;;;;;;;20.12;42.22;101297.97;5044447;28;20125;-71
2022/08/13 03:00:49;;;;;;;8.75;3.47;;;;;;;20.09;42.50;101294.81;5032108;28;20048;-70
2022/08/13 03:03:19;;;;;;;11.30;3.28;;;;;;;20.05;42.58;101304.47;5031993;28;20555;-70
2022/08/13 03:05:49;;;;;;;8.38;3.25;;;;;;;20.05;42.76;101305.28;5031776;28;20125;-70
2022/08/13 03:08:29;;;;;;;7.70;3.25;;;;;;;20.01;42.76;101305.94;5031736;28;20066;-70
2022/08/13 03:11:08;;;;;;;10.88;3.42;;;;;;;19.99;42.70;101305.28;5032289;28;20041;-70
2022/08/13 03:13:36;;;;;;;16.02;3.85;;;;;;;19.98;42.86;101304.44;5031588;28;20044;-70
2022/08/13 03:16:16;;;;;;;13.57;3.50;;;;;;;19.99;42.73;101299.84;5030877;28;20046;-72
2022/08/13 03:18:48;;;;;;;22.45;3.95;;;;;;;19.98;42.71;101306.34;5030766;28;20041;-71
2022/08/13 03:21:28;;;;;;;13.55;4.10;;;;;;;19.80;43.19;101302.34;5032096;28;20053;-70
2022/08/13 03:24:15;;;;;;;10.25;4.38;;;;;;;19.65;43.56;101301.63;5031690;28;20473;-70
2022/08/13 03:26:52;;;;;;;17.00;4.05;;;;;;;19.55;43.79;101303.91;5030195;28;20512;-70
2022/08/13 03:29:21;;;;;;;13.45;4.35;;;;;;;19.44;44.14;101303.47;5031217;28;20111;-70
2022/08/13 03:32:08;;;;;;;11.77;4.45;;;;;;;19.47;44.06;101297.63;5030925;28;20469;-70
2022/08/13 03:34:38;;;;;;;13.63;4.60;;;;;;;19.62;43.81;101293.88;5031440;28;20041;-71
2022/08/13 03:37:06;;;;;;;15.80;3.78;;;;;;;19.52;44.10;101293.44;5030662;28;20080;-71
2022/08/13 03:39:32;;;;;;;18.77;3.78;;;;;;;19.56;43.95;101292.00;5030769;28;20052;-70
2022/08/13 03:42:05;;;;;;;8.00;3.83;;;;;;;19.64;43.63;101289.09;5031650;28;20131;-69
2022/08/13 03:44:33;;;;;;;7.68;3.90;;;;;;;19.58;43.98;101290.75;5031944;28;20046;-70
2022/08/13 03:47:01;;;;;;;13.07;4.20;;;;;;;19.63;43.96;101276.53;5031255;28;20106;-70
2022/08/13 03:49:27;;;;;;;13.65;3.88;;;;;;;19.71;43.70;101281.81;5031188;28;20133;-70
2022/08/13 03:51:55;;;;;;;12.38;3.75;;;;;;;19.73;43.56;101283.28;5031312;28;20414;-71
2022/08/13 03:54:24;;;;;;;10.27;3.75;;;;;;;19.65;43.82;101271.69;5031116;28;20049;-71
2022/08/13 03:56:52;;;;;;;5.85;3.47;;;;;;;19.60;44.17;101275.06;5029618;28;20045;-71
2022/08/13 03:59:27;;;;;;;14.88;3.92;;;;;;;19.53;44.37;101278.81;5031079;28;20048;-70
2022/08/13 04:02:12;;;;;;;10.90;4.05;;;;;;;19.42;44.58;101269.38;5030951;28;20049;-69
2022/08/13 04:04:48;;;;;;;8.27;4.00;;;;;;;19.58;44.27;101270.84;5030863;28;20056;-70
2022/08/13 04:07:19;;;;;;;12.70;4.03;;;;;;;19.53;44.47;101278.81;5030551;28;20382;-70
2022/08/13 04:09:51;;;;;;;14.00;4.13;;;;;;;19.55;44.32;101287.59;5029658;28;20049;-70
2022/08/13 04:12:22;;;;;;;11.10;4.63;;;;;;;19.57;44.37;101283.63;5030315;28;20481;-70
2022/08/13 04:14:50;;;;;;;10.23;3.70;;;;;;;19.41;44.59;101284.84;5030468;28;20266;-71
2022/08/13 04:17:28;;;;;;;9.50;3.45;;;;;;;19.45;44.76;101280.69;5030528;28;20543;-69
2022/08/13 04:19:59;;;;;;;;;;;;;;;19.42;44.73;101278.38;5031872;28;20045;-70
2022/08/13 04:22:27;;;;;;;7.85;3.55;;;;;;;19.39;44.85;101272.50;5030599;28;19967;-70
2022/08/13 04:24:54;;;;;;;13.15;4.25;;;;;;;19.36;44.88;101276.47;5030828;28;20041;-70
2022/08/13 04:27:21;;;;;;;13.60;4.35;;;;;;;19.49;44.67;101273.78;5026723;28;20056;-70
2022/08/13 04:29:51;;;;;;;9.07;3.90;;;;;;;19.49;44.74;101275.66;5030349;28;20075;-70
2022/08/13 04:32:19;;;;;;;18.00;4.57;;;;;;;19.55;44.86;101280.25;5029279;28;20053;-70
2022/08/13 04:34:51;;;;;;;13.55;4.13;;;;;;;19.41;44.91;101281.28;5029713;28;20049;-70
2022/08/13 04:37:25;;;;;;;17.42;4.30;;;;;;;19.44;44.85;101287.16;5030070;28;20149;-70
2022/08/13 04:40:01;;;;;;;19.45;4.38;;;;;;;19.44;45.12;101287.16;5030721;28;20049;-70
2022/08/13 04:43:02;;;;;;;9.65;3.33;;;;;;;19.37;45.26;101291.72;5030342;28;20379;-70
2022/08/13 04:45:31;;;;;;;11.73;4.07;;;;;;;19.43;45.14;101282.75;5030220;28;20045;-70
2022/08/13 04:48:04;;;;;;;17.20;3.83;;;;;;;19.37;45.45;101280.84;5029920;28;20560;-70
2022/08/13 04:50:34;;;;;;;18.70;4.80;;;;;;;19.25;45.63;101282.50;5030331;28;20400;-69
2022/08/13 04:53:06;;;;;;;11.18;3.80;;;;;;;19.31;45.56;101281.69;5030592;28;20048;-71
2022/08/13 04:55:36;;;;;;;13.25;3.95;;;;;;;19.26;45.71;101279.56;5029570;28;20073;-69
2022/08/13 04:58:24;;;;;;;13.18;4.40;;;;;;;19.24;45.88;101286.25;5029710;28;20045;-70
2022/08/13 05:00:51;;;;;;;18.33;4.65;;;;;;;19.35;45.45;101282.13;5030448;28;20049;-71
2022/08/13 05:03:20;;;;;;;16.33;4.47;;;;;;;19.29;45.49;101275.59;5029998;28;20057;-69
2022/08/13 05:05:52;;;;;;;19.60;4.78;;;;;;;19.38;45.37;101281.69;5030851;28;20060;-71
2022/08/13 05:08:19;;;;;;;7.47;4.38;;;;;;;19.44;45.18;101276.25;5030170;28;20136;-71
2022/08/13 05:10:47;;;;;;;12.40;3.80;;;;;;;19.49;45.23;101275.66;5033094;28;20076;-71
2022/08/13 05:13:27;;;;;;;12.43;4.05;;;;;;;19.55;45.17;101266.66;5034105;28;20053;-70
2022/08/13 05:16:08;;;;;;;10.82;4.00;;;;;;;19.64;44.86;101280.91;5033917;28;20466;-69
2022/08/13 05:18:44;;;;;;;7.43;3.90;;;;;;;19.72;44.66;101276.13;5033753;28;20073;-69
2022/08/13 05:21:13;;;;;;;10.25;3.88;;;;;;;19.60;45.01;101271.50;5033511;28;20432;-69
2022/08/13 05:23:46;;;;;;;11.23;4.45;;;;;;;19.64;44.87;101275.47;5033752;28;20050;-70
2022/08/13 05:26:33;;;;;;;10.88;3.92;;;;;;;19.76;44.83;101276.56;5033653;28;20041;-71
2022/08/13 05:29:19;;;;;;;9.23;4.18;;;;;;;19.59;45.27;101272.53;5030813;28;20505;-70
2022/08/13 05:31:46;;;;;;;7.43;4.05;;;;;;;19.77;44.74;101270.09;5033745;28;20109;-70
2022/08/13 05:34:27;;;;;;;9.00;3.90;;;;;;;19.67;44.79;101270.50;5033699;28;20453;-71
2022/08/13 05:36:57;;;;;;;11.10;4.22;;;;;;;19.71;44.88;101276.34;5033025;28;20057;-69
2022/08/13 05:39:45;;;;;;;9.73;3.65;;;;;;;19.79;44.57;101273.41;5033669;28;20061;-69
2022/08/13 05:42:21;;;;;;;7.10;3.97;;;;;;;19.85;44.61;101269.88;5033828;28;20123;-71
2022/08/13 05:44:55;;;;;;;11.32;4.50;;;;;;;19.96;44.37;101269.25;5034011;28;20069;-70
2022/08/13 05:47:22;;;;;;;10.95;4.07;;;;;;;20.01;44.46;101265.06;5033707;28;20057;-70
2022/08/13 05:49:51;;;;;;;44.90;6.15;;;;;;;19.96;45.00;101266.53;5034853;28;20448;-69
2022/08/13 05:52:25;;;;;;;12.80;4.30;;;;;;;19.94;45.39;101265.06;5033313;28;20103;-70
2022/08/13 05:55:15;;;;;;;14.60;4.53;;;;;;;20.00;45.77;101263.38;5033526;28;20068;-70
2022/08/13 05:58:04;;;;;;;9.57;4.07;;;;;;;20.13;45.82;101268.81;5032720;28;20045;-70
2022/08/13 06:03:37;;;;;;;10.25;3.90;;;;;;;20.12;45.39;101267.16;5031974;28;20045;-70
2022/08/13 06:06:25;;;;;;;11.40;4.10;;;;;;;20.41;44.67;101269.44;5033488;28;20047;-70
2022/08/13 06:09:01;;;;;;;9.15;3.75;;;;;;;20.55;43.93;101275.72;5032629;28;20045;-70
2022/08/13 06:11:30;;;;;;;10.90;4.40;;;;;;;20.68;44.24;101262.06;5032092;28;20072;-70
2022/08/13 06:14:20;;;;;;;13.68;4.57;;;;;;;20.67;44.19;101275.91;5032407;28;20050;-70
2022/08/13 06:16:51;;;;;;;10.07;4.03;;;;;;;20.50;44.20;101266.53;5033136;28;20492;-69
2022/08/13 06:19:25;;;;;;;10.38;3.40;;;;;;;20.44;44.23;101270.91;5033070;28;20057;-69
2022/08/13 06:22:02;;;;;;;9.52;3.22;;;;;;;20.66;43.84;101263.31;5032824;28;20042;-69
2022/08/13 06:24:35;;;;;;;7.80;3.85;;;;;;;20.80;43.83;101270.44;5033445;28;20477;-69
2022/08/13 06:27:19;;;;;;;8.82;3.90;;;;;;;20.61;43.86;101272.13;5032742;28;20505;-69
2022/08/13 06:29:46;;;;;;;12.90;4.15;;;;;;;20.74;43.72;101265.00;5032839;28;20052;-70
2022/08/13 06:32:21;;;;;;;8.63;3.92;;;;;;;20.92;43.31;101268.69;5032676;28;20060;-70
2022/08/13 06:35:08;;;;;;;16.60;3.92;;;;;;;20.74;43.55;101265.81;5031851;28;20156;-70
2022/08/13 06:37:43;;;;;;;8.70;4.13;;;;;;;20.65;43.77;101272.53;5033659;28;20474;-70
2022/08/13 06:40:21;;;;;;;7.90;3.80;;;;;;;20.89;43.17;101277.28;5032882;28;20053;-69
2022/08/13 06:43:05;;;;;;;7.68;3.90;;;;;;;20.59;44.12;101281.56;5033735;28;20472;-68
2022/08/13 06:45:33;;;;;;;5.97;3.23;;;;;;;20.66;44.06;101285.13;5033997;28;20068;-69
2022/08/13 06:48:04;;;;;;;9.95;3.78;;;;;;;20.69;44.09;101284.69;5032604;28;20049;-71
2022/08/13 06:50:41;;;;;;;;;;;;;;;20.84;43.80;101279.00;5033742;28;20041;-70
2022/08/13 06:53:13;;;;;;;11.82;3.70;;;;;;;20.75;43.92;101289.31;5033359;28;19921;-70
2022/08/13 06:56:02;;;;;;;9.02;4.03;;;;;;;20.81;44.03;101291.19;5032881;28;20045;-70
2022/08/13 06:58:51;;;;;;;14.18;4.18;;;;;;;20.95;43.36;101286.50;5032903;28;20413;-70
2022/08/13 07:01:26;;;;;;;14.65;4.15;;;;;;;20.86;43.58;101287.78;5032577;28;20049;-70
2022/08/13 07:04:20;;;;;;;10.48;3.40;;;;;;;20.74;44.04;101293.09;5031944;28;20049;-70
2022/08/13 07:06:56;;;;;;;10.75;3.75;;;;;;;20.78;43.75;101294.31;5032377;28;20137;-70
2022/08/13 07:09:23;;;;;;;5.80;3.90;;;;;;;20.91;43.52;101283.38;5032819;28;20069;-70
2022/08/13 07:11:50;;;;;;;8.95;3.60;;;;;;;21.14;43.29;101287.50;5031723;28;20128;-70
2022/08/13 07:14:20;;;;;;;8.80;3.83;;;;;;;21.54;42.74;101284.56;5032587;28;20059;-70
2022/08/13 07:16:49;;;;;;;12.50;4.30;;;;;;;21.60;42.19;101286.44;5031723;28;20072;-71
2022/08/13 07:19:16;;;;;;;6.30;3.30;;;;;;;21.54;42.00;101282.69;5031749;28;20053;-69
2022/08/13 07:21:43;;;;;;;16.02;3.72;;;;;;;21.38;42.92;101284.03;5031046;28;20096;-71
2022/08/13 07:24:11;;;;;;;7.22;4.03;;;;;;;21.26;42.95;101283.06;5032863;28;20081;-70
2022/08/13 07:27:04;;;;;;;8.90;3.70;;;;;;;21.26;42.82;101277.59;5030375;28;20405;-70
2022/08/13 07:29:35;;;;;;;11.80;3.63;;;;;;;21.26;43.43;101280.31;5037392;28;20475;-70
2022/08/13 07:32:19;;;;;;;7.78;3.67;;;;;;;21.34;42.88;101277.34;5029578;28;20071;-70
2022/08/13 07:34:58;;;;;;;11.23;3.67;;;;;;;21.52;42.29;101275.75;5029541;28;20049;-70
2022/08/13 07:37:26;;;;;;;13.57;3.80;;;;;;;21.74;42.26;101281.72;5031083;28;20049;-70
2022/08/13 07:39:53;;;;;;;9.70;3.80;;;;;;;21.99;41.71;101281.78;5031436;28;20083;-70
2022/08/13 07:42:23;;;;;;;10.68;4.25;;;;;;;22.25;41.46;101276.03;5030729;28;20501;-70
2022/08/13 07:44:56;;;;;;;10.15;4.20;;;;;;;22.54;41.05;101277.28;5030223;28;20096;-70
2022/08/13 07:47:50;;;;;;;14.68;4.05;;;;;;;22.62;40.60;101273.41;5028001;28;20044;-69
2022/08/13 07:50:38;;;;;;;9.02;3.63;;;;;;;22.82;40.22;101280.56;5034348;28;20048;-70
2022/08/13 07:53:07;;;;;;;9.43;4.10;;;;;;;23.23;39.41;101286.16;5030242;28;20136;-69
2022/08/13 07:55:35;;;;;;;12.68;3.85;;;;;;;23.24;39.12;101287.00;5030383;28;20053;-71
2022/08/13 07:58:28;;;;;;;16.88;4.53;;;;;;;23.59;38.75;101278.91;5026747;28;20053;-71
2022/08/13 08:00:57;;;;;;;11.38;3.80;;;;;;;23.45;38.58;101282.91;5030476;28;20061;-71
2022/08/13 08:03:30;;;;;;;8.40;3.53;;;;;;;23.23;39.14;101280.69;5030571;28;20140;-70
2022/08/13 08:06:18;;;;;;;10.77;4.10;;;;;;;23.31;39.17;101278.69;5031668;28;20049;-70
2022/08/13 08:08:55;;;;;;;7.57;3.95;;;;;;;23.15;39.46;101280.16;5031135;28;20045;-70
2022/08/13 08:14:21;;;;;;;6.57;3.97;;;;;;;22.87;40.30;101287.00;5031171;28;20042;-69
2022/08/13 08:17:01;;;;;;;9.50;3.72;;;;;;;22.71;40.56;101280.25;5031183;28;20478;-70
2022/08/13 08:19:47;;;;;;;12.90;3.85;;;;;;;22.75;40.76;101277.91;5028391;28;20136;-70
2022/08/13 08:22:34;;;;;;;12.30;4.07;;;;;;;22.55;41.00;101276.22;5029535;28;20045;-70
2022/08/13 08:25:02;;;;;;;12.65;4.50;;;;;;;22.48;41.44;101285.56;5031738;28;20049;-70
2022/08/13 08:27:42;;;;;;;23.85;4.43;;;;;;;22.47;41.44;101286.63;5031198;28;20124;-70
2022/08/13 08:30:29;;;;;;;10.00;4.25;;;;;;;22.48;41.49;101283.66;5030209;28;20049;-70
2022/08/13 08:32:56;;;;;;;9.30;4.30;;;;;;;22.67;41.05;101289.97;5031052;28;20052;-71
2022/08/13 08:35:29;;;;;;;10.95;3.88;;;;;;;22.63;41.03;101286.00;5030314;28;20046;-70
2022/08/13 08:43:49;;;;;;;15.93;4.22;;;;;;;22.79;41.07;101284.59;5033848;28;20393;-70
2022/08/13 08:46:17;;;;;;;9.70;4.40;;;;;;;22.72;41.53;101286.56;5037311;28;20412;-70
2022/08/13 08:48:44;;;;;;;8.88;4.38;;;;;;;22.73;41.01;101280.84;5038139;28;20148;-69
2022/08/13 08:51:23;;;;;;;7.20;4.13;;;;;;;22.59;41.23;101281.22;5036683;28;20053;-71
2022/08/13 08:53:52;;;;;;;12.43;4.53;;;;;;;22.54;41.53;101281.91;5037222;28;20042;-70
2022/08/13 08:56:41;;;;;;;5.72;4.15;;;;;;;22.61;41.43;101277.22;5036439;28;20052;-71
2022/08/13 08:59:24;;;;;;;13.55;4.50;;;;;;;22.94;40.91;101263.13;5036794;28;20105;-71
2022/08/13 09:01:55;;;;;;;6.85;3.95;;;;;;;22.97;40.47;101270.06;5037191;28;20405;-70
2022/08/13 09:04:29;;;;;;;7.57;3.70;;;;;;;23.05;40.30;101272.47;5037532;28;20045;-69
2022/08/13 09:07:17;;;;;;;17.45;4.25;;;;;;;23.61;39.54;101268.56;5035281;28;20050;-71
2022/08/13 09:09:50;;;;;;;12.32;4.05;;;;;;;23.80;39.05;101260.31;5037400;28;20049;-71
2022/08/13 09:12:23;;;;;;;9.57;3.95;;;;;;;24.17;38.22;101269.16;5037105;28;20073;-71
2022/08/13 09:14:56;;;;;;;15.55;4.15;;;;;;;24.30;38.25;101265.34;5036583;28;20128;-71
2022/08/13 09:17:23;;;;;;;9.50;4.18;;;;;;;23.94;38.92;101278.19;5036873;28;20045;-70
2022/08/13 09:20:07;;;;;;;7.22;4.03;;;;;;;24.01;38.75;101270.69;5037284;28;20097;-70
2022/08/13 09:22:34;;;;;;;13.93;4.20;;;;;;;24.23;38.38;101273.72;5030220;28;20362;-71
2022/08/13 09:25:00;;;;;;;12.27;4.78;;;;;;;24.33;38.23;101264.84;5036292;28;20128;-70
2022/08/13 09:27:30;;;;;;;6.13;3.83;;;;;;;24.48;37.91;101258.94;5036355;28;20096;-70
2022/08/13 09:30:17;;;;;;;7.75;3.72;;;;;;;24.59;37.62;101267.13;5036447;28;20049;-71
2022/08/13 09:32:56;;;;;;;7.00;4.47;;;;;;;24.44;38.19;101264.06;5035450;28;20511;-69
2022/08/13 09:35:28;;;;;;;9.13;4.50;;;;;;;24.87;37.49;101262.78;5036590;28;20462;-69
2022/08/13 09:38:06;;;;;;;6.30;3.92;;;;;;;25.11;37.06;101256.19;5037819;28;20049;-70
2022/08/13 09:40:42;;;;;;;6.60;4.50;;;;;;;25.03;37.37;101262.06;5037280;28;20077;-70
2022/08/13 09:43:31;;;;;;;6.75;4.38;;;;;;;25.36;36.97;101252.25;5035934;28;20099;-70
2022/08/13 09:46:21;;;;;;;8.37;4.23;;;;;;;25.45;36.77;101256.28;5034421;28;20050;-70
2022/08/13 09:48:55;;;;;;;6.15;4.20;;;;;;;24.58;37.93;101256.44;5036260;28;20298;-70
2022/08/13 09:51:25;;;;;;;10.88;4.43;;;;;;;24.88;37.63;101251.56;5035796;28;20124;-70
2022/08/13 09:54:12;;;;;;;11.07;5.18;;;;;;;24.47;38.54;101262.72;5035776;28;20053;-70
2022/08/13 09:56:39;;;;;;;7.47;4.63;;;;;;;24.39;38.66;101250.22;5032938;28;20132;-71
2022/08/13 09:59:11;;;;;;;5.97;4.70;;;;;;;24.08;39.32;101246.75;5033256;28;20167;-71
2022/08/13 10:01:56;;;;;;;9.55;4.82;;;;;;;24.02;39.63;101246.84;5025235;28;20045;-70
2022/08/13 10:04:26;;;;;;;9.98;5.15;;;;;;;24.42;38.87;101250.59;5031830;28;20044;-69
2022/08/13 10:06:58;;;;;;;11.52;5.05;;;;;;;24.27;39.43;101241.16;5040313;28;20132;-70
2022/08/13 10:09:30;;;;;;;11.30;5.07;;;;;;;24.45;39.06;101246.53;5032928;28;20125;-70
2022/08/13 10:12:05;;;;;;;9.13;4.90;;;;;;;24.17;39.52;101237.09;5033355;28;20445;-70
2022/08/13 10:14:47;;;;;;;12.30;5.15;;;;;;;24.23;39.65;101242.69;5032456;28;20049;-70
2022/08/13 10:17:27;;;;;;;13.75;5.05;;;;;;;24.11;39.74;101232.56;5032442;28;20045;-70
2022/08/13 10:20:24;;;;;;;8.15;4.88;;;;;;;24.09;39.63;101240.22;5032547;28;20569;-70
2022/08/13 10:22:53;;;;;;;10.77;4.57;;;;;;;24.01;39.63;101229.59;5031717;28;20049;-70
2022/08/13 10:25:22;;;;;;;12.68;4.82;;;;;;;23.93;39.76;101229.94;5032520;28;20054;-70
2022/08/13 10:27:50;;;;;;;10.77;4.53;;;;;;;24.04;40.05;101231.84;5033577;28;20431;-70
2022/08/13 10:30:22;;;;;;;11.15;4.85;;;;;;;23.95;39.84;101228.66;5034724;28;20045;-71
2022/08/13 10:33:12;;;;;;;11.23;5.25;;;;;;;23.87;40.20;101236.38;5032071;28;20494;-70
2022/08/13 10:35:40;;;;;;;10.18;4.55;;;;;;;23.54;40.79;101231.38;5033608;28;20136;-71
2022/08/13 10:38:13;;;;;;;16.67;5.10;;;;;;;23.32;40.88;101233.81;5032853;28;20049;-71
2022/08/13 10:40:40;;;;;;;11.75;4.53;;;;;;;23.46;41.35;101247.06;5030999;28;20125;-70
2022/08/13 10:43:07;;;;;;;9.15;4.75;;;;;;;23.36;42.15;101235.03;5032732;28;20045;-72
2022/08/13 10:45:52;;;;;;;9.90;4.70;;;;;;;23.48;42.19;101238.66;5032067;28;20045;-70
2022/08/13 10:48:18;;;;;;;9.10;4.68;;;;;;;23.58;41.92;101233.44;5033958;28;20120;-71
2022/08/13 10:50:45;;;;;;;10.63;4.72;;;;;;;23.27;42.53;101232.63;5032579;28;20057;-70
2022/08/13 10:56:09;;;;;;;15.00;5.13;;;;;;;22.83;45.13;101236.56;5033262;28;20046;-70
2022/08/13 10:58:38;;;;;;;21.77;4.97;;;;;;;22.79;44.81;101229.88;5031693;28;20045;-71
2022/08/13 11:01:15;;;;;;;27.50;5.38;;;;;;;22.93;44.34;101236.00;5031996;28;20045;-70
2022/08/13 11:03:44;;;;;;;7.65;4.60;;;;;;;23.14;43.57;101226.50;5032456;28;20056;-70
2022/08/13 11:06:13;;;;;;;11.67;3.97;;;;;;;23.23;42.92;101219.66;5031267;28;20054;-70
2022/08/13 11:08:40;;;;;;;11.27;3.60;;;;;;;23.37;42.87;101225.75;5031882;28;20070;-69
2022/08/13 11:11:10;;;;;;;6.95;3.60;;;;;;;23.49;42.64;101229.34;5031803;28;20059;-71
2022/08/13 11:13:57;;;;;;;14.02;4.90;;;;;;;23.54;42.35;101225.91;5031247;28;20048;-71
2022/08/13 11:18:56;;;;;;;11.45;3.45;;;;;;;23.25;42.91;101223.81;5030828;28;20079;-70
2022/08/13 11:21:24;;;;;;;5.95;3.38;;;;;;;23.29;43.02;101217.84;5032063;28;20135;-70
2022/08/13 11:24:12;;;;;;;11.57;3.92;;;;;;;23.19;43.41;101223.88;5032680;28;20409;-71
2022/08/13 11:26:40;;;;;;;16.20;3.92;;;;;;;23.21;43.82;101230.81;5031413;28;20124;-70
2022/08/13 11:29:08;;;;;;;11.57;3.88;;;;;;;23.15;43.41;101226.25;5031716;28;20049;-70
2022/08/13 11:31:36;;;;;;;11.60;4.05;;;;;;;23.21;43.76;101222.59;5031941;28;20056;-70
2022/08/13 11:34:24;;;;;;;9.18;4.32;;;;;;;22.97;44.63;101220.81;5030235;28;20060;-70
2022/08/13 11:36:51;;;;;;;5.90;4.22;;;;;;;22.98;44.46;101225.19;5022857;28;20489;-70
2022/08/13 11:39:19;;;;;;;10.93;4.82;;;;;;;23.12;43.98;101221.28;5030722;28;20136;-70
2022/08/13 11:42:05;;;;;;;14.27;4.10;;;;;;;23.40;43.80;101225.25;5031500;28;20045;-69
2022/08/13 11:44:32;;;;;;;7.43;4.38;;;;;;;23.56;43.30;101219.13;5032255;28;20072;-71
2022/08/13 11:46:58;;;;;;;16.90;4.40;;;;;;;23.30;44.11;101219.56;5031808;28;20458;-71
2022/08/13 11:49:35;;;;;;;11.43;4.88;;;;;;;23.26;44.28;101222.75;5030977;28;20490;-71
2022/08/13 11:52:08;;;;;;;14.10;5.13;;;;;;;23.15;44.52;101218.03;5031916;28;20045;-71
2022/08/13 11:54:35;;;;;;;9.73;4.47;;;;;;;22.98;44.90;101222.47;5031887;28;20478;-70
2022/08/13 11:57:04;;;;;;;10.65;4.70;;;;;;;22.86;44.78;101218.84;5031975;28;20132;-70
2022/08/13 11:59:38;;;;;;;18.90;4.78;;;;;;;22.85;44.52;101225.41;5031702;28;20158;-71
2022/08/13 12:02:10;;;;;;;13.07;5.38;;;;;;;23.11;43.88;101224.19;5031477;28;20053;-71
2022/08/13 12:04:42;;;;;;;10.38;4.95;;;;;;;23.03;44.50;101233.56;5024231;28;20068;-71
2022/08/13 12:07:15;;;;;;;16.00;4.80;;;;;;;23.16;44.32;101233.41;5044802;28;20053;-71
2022/08/13 12:09:41;;;;;;;12.10;4.75;;;;;;;23.31;43.05;101226.69;5027006;28;20069;-70
2022/08/13 12:12:15;;;;;;;12.82;4.88;;;;;;;23.08;48.64;101232.88;5033744;28;20469;-70
2022/08/13 12:14:51;;;;;;;13.05;5.05;;;;;;;21.88;50.12;101223.22;5027572;28;20049;-69
2022/08/13 12:17:19;;;;;;;14.43;5.32;;;;;;;21.72;51.56;101218.28;5031160;28;20426;-70
2022/08/13 12:20:08;;;;;;;19.08;5.00;;;;;;;21.54;50.69;101221.78;5028586;28;20045;-69
2022/08/13 12:22:49;;;;;;;15.88;4.75;;;;;;;21.97;49.51;101215.56;5030965;28;20053;-70
2022/08/13 12:25:19;;;;;;;12.13;5.13;;;;;;;22.13;52.81;101205.97;5030857;28;20072;-71